Time;durP1;ratioP1;P1;durP2;ratioP2;P2;SDS_P1;SDS_P2;PMS_P1;PMS_P2;Temp;Humidity;BMP_temperature;BMP_pressure;BME280_temperature;BME280_humidity;BME280_pressure;Samples;Min_cycle;Max_cycle;Signal;HPM_P1;HPM_P2
2023/01/25 00:01:28;;;;;;;88.85;52.92;;;102.80;2227.20;;;;;;5052265;28;20510;-69
2023/01/25 00:03:54;;;;;;;80.22;48.45;;;102.90;2227.20;;;;;;5051926;28;20023;-62
2023/01/25 00:06:20;;;;;;;75.38;48.72;;;102.90;2227.20;;;;;;5052023;28;20028;-61
2023/01/25 00:08:49;;;;;;;80.68;45.72;;;103.00;2227.20;;;;;;5051823;28;20056;-61
2023/01/25 00:11:19;;;;;;;77.00;40.83;;;103.10;2227.20;;;;;;5051382;28;20117;-61
2023/01/25 00:13:45;;;;;;;94.40;56.33;;;103.00;2227.20;;;;;;5051747;28;20029;-68
2023/01/25 00:16:11;;;;;;;102.78;62.67;;;103.00;2227.20;;;;;;5051915;28;20079;-61
2023/01/25 00:18:36;;;;;;;60.97;34.15;;;103.00;2227.20;;;;;;5051628;28;20403;-62
2023/01/25 00:21:19;;;;;;;55.92;33.58;;;103.00;2227.20;;;;;;5051763;28;20107;-70
2023/01/25 00:23:46;;;;;;;75.28;41.53;;;102.80;2227.20;;;;;;5051533;28;20029;-66
2023/01/25 00:26:11;;;;;;;80.35;43.33;;;102.80;2227.20;;;;;;5051574;28;20471;-70
2023/01/25 00:28:37;;;;;;;83.43;47.15;;;102.80;2227.20;;;;;;5050535;28;20067;-64
2023/01/25 00:31:05;;;;;;;66.53;38.45;;;102.80;2227.20;;;;;;5051686;28;20029;-62
2023/01/25 00:33:36;;;;;;;73.47;40.60;;;102.90;2227.20;;;;;;5051474;28;20032;-61
2023/01/25 00:36:31;;;;;;;84.32;45.60;;;102.90;2227.20;;;;;;5051461;28;20025;-61
2023/01/25 00:38:57;;;;;;;75.93;43.17;;;102.90;2227.20;;;;;;5051305;28;20017;-67
2023/01/25 00:41:23;;;;;;;80.00;44.45;;;102.80;2227.20;;;;;;5051080;28;20032;-62
2023/01/25 00:43:49;;;;;;;77.20;46.33;;;102.80;2227.20;;;;;;5051365;28;20542;-61
2023/01/25 00:46:16;;;;;;;65.72;38.58;;;102.90;2227.20;;;;;;5050939;28;20040;-61
2023/01/25 00:48:42;;;;;;;71.32;41.42;;;102.70;2227.20;;;;;;5051329;28;20025;-61
2023/01/25 00:51:09;;;;;;;67.45;40.38;;;102.70;2227.20;;;;;;5051119;28;20025;-68
2023/01/25 00:53:34;;;;;;;66.88;40.05;;;102.50;2227.20;;;;;;5051152;28;20045;-61
2023/01/25 00:56:00;;;;;;;79.75;43.45;;;102.50;2227.20;;;;;;5051237;28;20070;-70
2023/01/25 00:58:26;;;;;;;71.22;38.92;;;102.50;2227.20;;;;;;5050900;28;20471;-61
2023/01/25 01:00:53;;;;;;;71.95;41.67;;;102.60;2227.20;;;;;;5051290;28;20360;-72
2023/01/25 01:03:19;;;;;;;75.00;42.58;;;102.80;2227.20;;;;;;5051152;28;20074;-61
2023/01/25 01:05:45;;;;;;;95.95;47.55;;;102.70;2227.20;;;;;;5050614;28;20021;-71
2023/01/25 01:08:14;;;;;;;88.57;47.25;;;102.60;2227.20;;;;;;5050944;28;20027;-61
2023/01/25 01:10:40;;;;;;;81.80;44.65;;;102.50;2227.20;;;;;;5050927;28;20028;-70
2023/01/25 01:13:06;;;;;;;81.47;45.20;;;102.50;2227.20;;;;;;5050483;28;20048;-70
2023/01/25 01:15:35;;;;;;;86.80;47.03;;;102.40;2227.20;;;;;;5050929;28;20025;-70
2023/01/25 01:18:01;;;;;;;90.70;46.35;;;102.60;2227.20;;;;;;5050778;28;20075;-69
2023/01/25 01:20:27;;;;;;;87.45;45.50;;;102.80;2227.20;;;;;;5050560;28;20033;-68
2023/01/25 01:22:56;;;;;;;91.15;47.03;;;102.90;2227.20;;;;;;5050478;28;20084;-61
2023/01/25 01:25:21;;;;;;;80.47;45.10;;;102.90;2227.20;;;;;;5050621;28;20032;-71
2023/01/25 01:27:47;;;;;;;90.60;48.63;;;103.00;2227.20;;;;;;5050372;28;20028;-61
2023/01/25 01:30:13;;;;;;;110.85;52.83;;;103.00;2227.20;;;;;;5050611;28;20078;-61
2023/01/25 01:32:38;;;;;;;94.03;47.83;;;103.00;2227.20;;;;;;5050703;28;20095;-71
2023/01/25 01:35:05;;;;;;;94.18;48.22;;;103.10;2227.20;;;;;;5050432;28;20025;-62
2023/01/25 01:37:30;;;;;;;99.53;51.78;;;103.10;2227.20;;;;;;5050687;28;20028;-61
2023/01/25 01:39:56;;;;;;;117.35;60.92;;;103.10;2227.20;;;;;;5050141;28;20387;-61
2023/01/25 01:42:21;;;;;;;119.38;58.72;;;103.10;2227.20;;;;;;5050479;28;20071;-71
2023/01/25 01:44:48;;;;;;;93.30;53.05;;;103.10;2227.20;;;;;;5050131;28;20122;-64
2023/01/25 01:47:21;;;;;;;106.05;57.33;;;103.20;2227.20;;;;;;5050360;28;20025;-62
2023/01/25 01:49:53;;;;;;;101.22;56.13;;;103.20;2227.20;;;;;;5050170;28;20041;-62
2023/01/25 01:52:23;;;;;;;109.78;60.05;;;103.20;2227.20;;;;;;5050287;28;20072;-71
2023/01/25 01:54:55;;;;;;;107.60;56.35;;;103.20;2227.20;;;;;;5050405;28;20033;-71
2023/01/25 01:57:39;;;;;;;113.47;58.03;;;103.20;2227.20;;;;;;5050323;28;20055;-61
2023/01/25 02:00:13;;;;;;;105.63;54.40;;;103.20;2227.20;;;;;;5050088;28;20028;-61
2023/01/25 02:02:40;;;;;;;102.13;52.80;;;103.20;2227.20;;;;;;5050454;28;20017;-60
2023/01/25 02:05:11;;;;;;;100.40;53.72;;;103.10;2227.20;;;;;;5050059;28;20517;-61
2023/01/25 02:07:38;;;;;;;96.28;56.00;;;103.20;2227.20;;;;;;5050261;28;20386;-61
2023/01/25 02:10:07;;;;;;;95.72;52.25;;;103.20;2227.20;;;;;;5050324;28;20043;-62
2023/01/25 02:12:33;;;;;;;120.78;66.60;;;103.30;2227.20;;;;;;5049973;28;20041;-61
2023/01/25 02:14:59;;;;;;;105.90;59.28;;;103.10;2227.20;;;;;;5050198;28;20017;-61
2023/01/25 02:17:30;;;;;;;110.15;64.05;;;103.10;2227.20;;;;;;5050135;28;20028;-61
2023/01/25 02:20:21;;;;;;;124.82;66.25;;;103.10;2227.20;;;;;;5049979;28;20017;-64
2023/01/25 02:22:59;;;;;;;120.18;65.93;;;103.10;2227.20;;;;;;5049826;28;20422;-61
2023/01/25 02:25:26;;;;;;;123.28;69.60;;;103.20;2227.20;;;;;;5049847;28;20034;-61
2023/01/25 02:28:13;;;;;;;131.00;71.45;;;103.20;2227.20;;;;;;5050267;28;20067;-60
2023/01/25 02:30:41;;;;;;;134.18;79.07;;;103.20;2227.20;;;;;;5050161;28;20028;-69
2023/01/25 02:33:07;;;;;;;134.07;71.63;;;103.20;2227.20;;;;;;5049847;28;20072;-67
2023/01/25 02:35:47;;;;;;;140.00;75.25;;;103.10;2227.20;;;;;;5050064;28;20021;-62
2023/01/25 02:38:15;;;;;;;127.28;70.18;;;103.20;2227.20;;;;;;5049857;28;20112;-60
2023/01/25 02:41:04;;;;;;;129.48;70.72;;;103.10;2227.20;;;;;;5049989;28;20028;-61
2023/01/25 02:43:32;;;;;;;125.20;66.43;;;103.20;2227.20;;;;;;5049644;28;20064;-60
2023/01/25 02:46:09;;;;;;;136.35;72.03;;;103.20;2227.20;;;;;;5049220;28;20041;-70
2023/01/25 02:48:35;;;;;;;151.68;77.85;;;103.10;2227.20;;;;;;5047668;28;20025;-61
2023/01/25 02:51:01;;;;;;;128.75;70.38;;;103.20;2227.20;;;;;;5049391;28;20028;-69
2023/01/25 02:53:27;;;;;;;132.25;70.38;;;103.20;2227.20;;;;;;5049363;28;20128;-61
2023/01/25 02:55:52;;;;;;;130.45;67.35;;;103.20;2227.20;;;;;;5052698;28;20029;-61
2023/01/25 02:58:18;;;;;;;107.85;61.45;;;103.20;2227.20;;;;;;5052707;28;20021;-61
2023/01/25 03:00:44;;;;;;;118.22;65.63;;;103.20;2227.20;;;;;;5052580;28;20021;-64
2023/01/25 03:03:09;;;;;;;103.88;55.08;;;103.20;2227.20;;;;;;5053023;28;20040;-61
2023/01/25 03:05:35;;;;;;;111.63;60.80;;;103.20;2227.20;;;;;;5052784;28;20060;-59
2023/01/25 03:08:01;;;;;;;114.50;62.13;;;103.20;2227.20;;;;;;5052772;28;20028;-60
2023/01/25 03:10:26;;;;;;;123.75;63.55;;;103.20;2227.20;;;;;;5052713;28;20036;-61
2023/01/25 03:12:52;;;;;;;99.05;53.47;;;103.20;2227.20;;;;;;5053017;28;20082;-60
2023/01/25 03:15:18;;;;;;;90.32;48.40;;;102.80;2227.20;;;;;;5052956;28;20032;-64
2023/01/25 03:17:44;;;;;;;87.55;45.00;;;103.20;2227.20;;;;;;5052493;28;20040;-63
2023/01/25 03:20:10;;;;;;;87.32;47.65;;;103.20;2227.20;;;;;;5052965;28;20035;-69
2023/01/25 03:22:36;;;;;;;80.05;45.50;;;103.20;2227.20;;;;;;5052722;28;20025;-61
2023/01/25 03:25:01;;;;;;;80.38;44.22;;;103.20;2227.20;;;;;;5053131;28;20498;-61
2023/01/25 03:27:29;;;;;;;79.00;43.03;;;103.20;2227.20;;;;;;5052047;28;20029;-64
2023/01/25 03:29:54;;;;;;;68.55;38.40;;;103.20;2227.20;;;;;;5052835;28;20494;-62
2023/01/25 03:32:21;;;;;;;87.25;46.95;;;103.20;2227.20;;;;;;5052744;28;20029;-70
2023/01/25 03:34:47;;;;;;;85.63;47.75;;;103.20;2227.20;;;;;;5052386;28;20471;-62
2023/01/25 03:37:12;;;;;;;85.30;47.08;;;103.20;2227.20;;;;;;5052610;28;20071;-61
2023/01/25 03:39:38;;;;;;;83.05;40.42;;;103.20;2227.20;;;;;;5052709;28;20029;-69
2023/01/25 03:42:04;;;;;;;81.13;47.83;;;103.10;2227.20;;;;;;5052149;28;20379;-62
2023/01/25 03:44:29;;;;;;;70.25;37.50;;;103.10;2227.20;;;;;;5052512;28;20036;-61
2023/01/25 03:46:56;;;;;;;68.07;37.03;;;103.10;2227.20;;;;;;5052662;28;20060;-62
2023/01/25 03:49:22;;;;;;;71.95;38.75;;;103.00;2227.20;;;;;;5052414;28;20033;-70
2023/01/25 03:51:48;;;;;;;76.90;41.00;;;103.00;2227.20;;;;;;5051995;28;20043;-62
2023/01/25 03:54:14;;;;;;;65.40;34.65;;;102.90;2227.20;;;;;;5052153;28;20043;-62
2023/01/25 03:56:41;;;;;;;62.05;32.70;;;102.80;2227.20;;;;;;5052135;28;20108;-69
2023/01/25 03:59:07;;;;;;;64.60;35.05;;;102.80;2227.20;;;;;;5052019;28;20040;-61
2023/01/25 04:01:33;;;;;;;59.17;34.33;;;102.90;2227.20;;;;;;5052186;28;20530;-61
2023/01/25 04:03:58;;;;;;;58.28;31.80;;;102.80;2227.20;;;;;;5051881;28;20108;-68
2023/01/25 04:06:24;;;;;;;71.20;40.03;;;102.80;2227.20;;;;;;5052000;28;20028;-62
2023/01/25 04:08:50;;;;;;;77.03;39.45;;;102.70;2227.20;;;;;;5051962;28;20025;-70
2023/01/25 04:11:15;;;;;;;76.20;40.47;;;102.70;2227.20;;;;;;5051787;28;20029;-62
2023/01/25 04:13:41;;;;;;;68.40;39.58;;;102.70;2227.20;;;;;;5051943;28;20090;-62
2023/01/25 04:16:10;;;;;;;87.75;48.22;;;102.80;2227.20;;;;;;5051778;28;20368;-62
2023/01/25 04:18:37;;;;;;;77.32;42.28;;;102.90;2227.20;;;;;;5051601;28;20119;-66
2023/01/25 04:21:03;;;;;;;69.47;38.65;;;102.80;2227.20;;;;;;5052050;28;20098;-71
2023/01/25 04:23:29;;;;;;;84.85;45.58;;;102.70;2227.20;;;;;;5051432;28;20029;-62
2023/01/25 04:25:57;;;;;;;74.30;37.47;;;102.80;2227.20;;;;;;5051533;28;20143;-62
2023/01/25 04:28:23;;;;;;;72.30;35.75;;;102.80;2227.20;;;;;;5051528;28;20079;-70
2023/01/25 04:30:49;;;;;;;68.35;35.17;;;102.90;2227.20;;;;;;5051829;28;20032;-70
2023/01/25 04:33:15;;;;;;;64.30;35.45;;;102.90;2227.20;;;;;;5051261;28;20033;-61
2023/01/25 04:35:41;;;;;;;72.93;35.05;;;103.00;2227.20;;;;;;5051542;28;20497;-61
2023/01/25 04:38:08;;;;;;;64.18;35.92;;;103.10;2227.20;;;;;;5051445;28;20029;-61
2023/01/25 04:40:34;;;;;;;80.97;43.63;;;103.00;2227.20;;;;;;5051656;28;20047;-61
2023/01/25 04:43:00;;;;;;;81.15;45.33;;;102.90;2227.20;;;;;;5051369;28;20534;-69
2023/01/25 04:45:26;;;;;;;72.07;41.42;;;102.90;2227.20;;;;;;5050937;28;20041;-61
2023/01/25 04:47:56;;;;;;;77.97;38.30;;;103.00;2227.20;;;;;;5051681;28;20089;-61
2023/01/25 04:50:22;;;;;;;69.72;38.80;;;102.90;2227.20;;;;;;5051564;28;20052;-61
2023/01/25 04:52:49;;;;;;;69.38;37.97;;;103.00;2227.20;;;;;;5050791;28;20083;-69
2023/01/25 04:55:15;;;;;;;65.38;33.53;;;103.10;2227.20;;;;;;5051311;28;20075;-62
2023/01/25 04:57:41;;;;;;;62.63;36.13;;;102.90;2227.20;;;;;;5051039;28;20029;-70
2023/01/25 05:00:10;;;;;;;66.93;38.17;;;102.90;2227.20;;;;;;5051192;28;20025;-62
2023/01/25 05:02:36;;;;;;;66.72;38.08;;;102.80;2227.20;;;;;;5050555;28;20035;-62
2023/01/25 05:05:02;;;;;;;59.22;34.60;;;102.90;2227.20;;;;;;5051430;28;20033;-61
2023/01/25 05:07:27;;;;;;;63.92;37.75;;;103.00;2227.20;;;;;;5050781;28;20029;-64
2023/01/25 05:09:53;;;;;;;74.88;38.88;;;102.90;2227.20;;;;;;5050975;28;20021;-61
2023/01/25 05:12:19;;;;;;;66.93;34.30;;;103.00;2227.20;;;;;;5050608;28;20033;-62
2023/01/25 05:14:45;;;;;;;59.08;35.53;;;103.00;2227.20;;;;;;5032273;28;20032;-62
2023/01/25 05:17:10;;;;;;;68.97;37.75;;;103.00;2227.20;;;;;;5050893;28;20056;-61
2023/01/25 05:19:36;;;;;;;64.18;38.05;;;103.00;2227.20;;;;;;5050536;28;20533;-61
2023/01/25 05:22:06;;;;;;;60.63;33.88;;;103.00;2227.20;;;;;;5050893;28;20033;-61
2023/01/25 05:24:33;;;;;;;54.15;31.55;;;103.10;2227.20;;;;;;5050948;28;20097;-61
2023/01/25 05:27:02;;;;;;;54.35;31.23;;;103.00;2227.20;;;;;;5050736;28;20029;-62
2023/01/25 05:29:41;;;;;;;52.85;31.48;;;103.10;2227.20;;;;;;5050238;28;20499;-61
2023/01/25 05:32:12;;;;;;;59.92;32.42;;;103.10;2227.20;;;;;;5050560;28;20120;-64
2023/01/25 05:34:38;;;;;;;63.72;38.42;;;103.10;2227.20;;;;;;5050258;28;20087;-62
2023/01/25 05:37:06;;;;;;;73.95;40.60;;;103.10;2227.20;;;;;;5050699;28;20029;-62
2023/01/25 05:39:32;;;;;;;62.63;37.33;;;103.10;2227.20;;;;;;5050606;28;20056;-61
2023/01/25 05:41:57;;;;;;;66.97;37.35;;;103.00;2227.20;;;;;;5050488;28;20479;-66
2023/01/25 05:44:24;;;;;;;68.40;39.55;;;102.90;2227.20;;;;;;5050007;28;20475;-70
2023/01/25 05:46:49;;;;;;;70.53;38.05;;;102.90;2227.20;;;;;;5050588;28;20025;-64
2023/01/25 05:49:16;;;;;;;69.07;40.05;;;103.00;2227.20;;;;;;5050281;28;20516;-62
2023/01/25 05:51:42;;;;;;;80.68;41.95;;;103.00;2227.20;;;;;;5050269;28;20057;-72
2023/01/25 05:54:11;;;;;;;84.03;40.80;;;;;;;;;;5033393;28;20484;-61
2023/01/25 05:56:38;;;;;;;84.65;48.28;;;;;;;;;;5030173;28;20033;-62
2023/01/25 05:59:04;;;;;;;78.93;44.65;;;;;;;;;;5030541;28;20033;-70
2023/01/25 06:01:30;;;;;;;87.05;42.67;;;;;;;;;;5030254;28;20479;-61
2023/01/25 06:03:56;;;;;;;81.85;43.97;;;;;;;;;;5030507;28;20104;-70
2023/01/25 06:06:23;;;;;;;88.55;47.65;;;;;;;;;;5033012;28;20057;-63
2023/01/25 06:08:49;;;;;;;90.25;47.78;;;;;;;;;;5030155;28;20537;-61
2023/01/25 06:11:17;;;;;;;95.80;50.25;;;;;;;;;;5030271;28;20036;-62
2023/01/25 06:13:43;;;;;;;113.68;54.40;;;;;;;;;;5030093;28;20038;-60
2023/01/25 06:16:09;;;;;;;96.88;54.92;;;;;;;;;;5030124;28;20026;-61
2023/01/25 06:18:36;;;;;;;103.32;54.10;;;;;;;;;;5030008;28;20084;-62
2023/01/25 06:21:02;;;;;;;99.38;53.65;;;;;;;;;;5030142;28;20032;-61
2023/01/25 06:23:28;;;;;;;106.28;58.00;;;;;;;;;;5029739;28;20029;-62
2023/01/25 06:26:02;;;;;;;112.10;60.65;;;;;;;;;;5029818;28;20029;-62
2023/01/25 06:28:28;;;;;;;;;;;;;;;;;;5034019;28;20022;-66
2023/01/25 06:30:54;;;;;;;103.40;56.70;;;;;;;;;;5034051;28;19905;-61
2023/01/25 06:33:20;;;;;;;109.47;61.33;;;;;;;;;;5033910;28;20029;-62
2023/01/25 06:35:46;;;;;;;116.15;62.47;;;;;;;;;;5033758;28;20537;-61
2023/01/25 06:38:12;;;;;;;118.57;69.47;;;;;;;;;;5033783;28;20060;-69
2023/01/25 06:40:38;;;;;;;125.53;67.05;;;;;;;;;;5033574;28;20472;-61
2023/01/25 06:43:08;;;;;;;121.07;66.88;;;;;;;;;;5033798;28;20383;-61
2023/01/25 06:45:34;;;;;;;126.78;68.40;;;;;;;;;;5044831;28;20045;-65
2023/01/25 06:48:00;;;;;;;130.85;69.88;;;;;;;;;;5053826;28;20025;-61
2023/01/25 06:50:26;;;;;;;118.90;66.82;;;;;;;;;;5053616;28;20356;-61
2023/01/25 06:52:53;;;;;;;131.68;68.90;;;;;;;;;;5053326;28;20041;-61
2023/01/25 06:55:19;;;;;;;115.20;61.90;;;;;;;;;;5053220;28;20091;-62
2023/01/25 06:57:45;;;;;;;118.22;66.45;;;;;;;;;;5053278;28;20021;-62
2023/01/25 07:00:11;;;;;;;126.95;65.05;;;;;;;;;;5053412;28;20028;-70
2023/01/25 07:02:37;;;;;;;136.23;65.25;;;;;;;;;;5053221;28;20086;-69
2023/01/25 07:05:04;;;;;;;149.45;68.18;;;;;;;;;;5053440;28;20120;-71
2023/01/25 07:07:30;;;;;;;129.45;65.40;;;;;;;;;;5053105;28;20087;-62
2023/01/25 07:09:57;;;;;;;123.68;64.75;;;;;;;;;;5053072;28;20495;-61
2023/01/25 07:12:24;;;;;;;146.55;82.63;;;;;;;;;;5053157;28;20037;-61
2023/01/25 07:14:50;;;;;;;181.23;87.68;;;;;;;;;;5053088;28;20029;-70
2023/01/25 07:17:16;;;;;;;140.00;69.22;;;;;;;;;;5052857;28;20040;-61
2023/01/25 07:19:42;;;;;;;122.28;67.88;;;;;;;;;;5053123;28;20021;-61
2023/01/25 07:22:08;;;;;;;138.15;76.78;;;;;;;;;;5052553;28;20033;-63
2023/01/25 07:24:34;;;;;;;119.72;68.68;;;;;;;;;;5052989;28;20033;-61
2023/01/25 07:27:00;;;;;;;118.88;63.05;;;;;;;;;;5053045;28;20049;-61
2023/01/25 07:29:26;;;;;;;119.35;60.45;;;;;;;;;;5052865;28;20036;-61
2023/01/25 07:31:52;;;;;;;186.38;73.00;;;;;;;;;;5052753;28;20041;-62
2023/01/25 07:34:19;;;;;;;129.63;61.53;;;;;;;;;;5052633;28;20027;-61
2023/01/25 07:36:45;;;;;;;139.07;63.70;;;;;;;;;;5052520;28;20060;-61
2023/01/25 07:39:12;;;;;;;140.50;71.07;;;;;;;;;;5052187;28;20025;-61
2023/01/25 07:41:38;;;;;;;124.20;63.13;;;;;;;;;;5052561;28;20391;-62
2023/01/25 07:44:04;;;;;;;117.78;63.67;;;;;;;;;;5052155;28;20031;-63
2023/01/25 07:46:31;;;;;;;111.13;57.70;;;;;;;;;;5052260;28;20051;-61
2023/01/25 07:48:57;;;;;;;112.05;59.80;;;;;;;;;;5052211;28;20104;-62
2023/01/25 07:51:26;;;;;;;120.57;62.58;;;;;;;;;;5052163;28;20108;-62
2023/01/25 07:53:52;;;;;;;110.97;58.63;;;;;;;;;;5052255;28;20036;-62
2023/01/25 07:56:19;;;;;;;118.38;62.58;;;;;;;;;;5052161;28;20070;-62
2023/01/25 07:58:45;;;;;;;132.63;66.88;;;;;;;;;;5052235;28;20064;-61
2023/01/25 08:01:13;;;;;;;135.02;64.93;;;;;;;;;;5052102;28;20029;-62
2023/01/25 08:03:39;;;;;;;132.77;67.22;;;;;;;;;;5051861;28;20028;-62
2023/01/25 08:06:05;;;;;;;187.38;97.70;;;;;;;;;;5051921;28;20417;-62
2023/01/25 08:08:33;;;;;;;142.73;74.03;;;;;;;;;;5052259;28;20036;-62
2023/01/25 08:11:00;;;;;;;132.02;67.82;;;;;;;;;;5052291;28;20029;-62
2023/01/25 08:13:26;;;;;;;119.15;66.03;;;;;;;;;;5051808;28;20037;-61
2023/01/25 08:15:55;;;;;;;135.07;74.50;;;;;;;;;;5051889;28;20025;-62
2023/01/25 08:18:21;;;;;;;120.75;62.70;;;;;;;;;;5051956;28;20063;-62
2023/01/25 08:20:48;;;;;;;140.07;80.60;;;;;;;;;;5051172;28;20044;-63
2023/01/25 08:23:14;;;;;;;129.43;74.07;;;;;;;;;;5051215;28;20037;-61
2023/01/25 08:25:40;;;;;;;118.22;66.88;;;;;;;;;;5051843;28;20029;-62
2023/01/25 08:28:06;;;;;;;98.88;56.55;;;;;;;;;;5051280;28;20375;-62
2023/01/25 08:30:33;;;;;;;89.15;48.60;;;;;;;;;;5051587;28;20035;-62
2023/01/25 08:32:59;;;;;;;89.38;53.72;;;;;;;;;;5051273;28;20041;-61
2023/01/25 08:35:25;;;;;;;86.07;49.28;;;;;;;;;;5051419;28;20021;-62
2023/01/25 08:37:51;;;;;;;94.82;54.85;;;;;;;;;;5051504;28;20029;-60
2023/01/25 08:40:17;;;;;;;121.95;74.53;;;;;;;;;;5051127;28;20108;-61
2023/01/25 08:42:43;;;;;;;107.10;60.95;;;;;;;;;;5051316;28;20025;-62
2023/01/25 08:45:09;;;;;;;94.50;55.92;;;;;;;;;;5050962;28;20052;-61
2023/01/25 08:47:35;;;;;;;101.18;60.33;;;;;;;;;;5051131;28;20356;-62
2023/01/25 08:50:02;;;;;;;106.85;62.33;;;;;;;;;;5050380;28;20440;-61
2023/01/25 08:52:28;;;;;;;98.47;56.17;;;;;;;;;;5050772;28;20040;-61
2023/01/25 08:54:54;;;;;;;96.90;59.25;;;;;;;;;;5051299;28;20029;-61
2023/01/25 08:57:20;;;;;;;109.40;65.18;;;;;;;;;;5051236;28;20071;-62
2023/01/25 08:59:46;;;;;;;102.85;59.25;;;;;;;;;;5051005;28;20429;-60
2023/01/25 09:02:13;;;;;;;106.45;52.75;;;;;;;;;;5048829;28;20029;-61
2023/01/25 09:04:39;;;;;;;97.25;52.30;;;;;;;;;;5049022;28;20083;-62
2023/01/25 09:07:06;;;;;;;122.95;64.20;;;;;;;;;;5048605;28;20071;-62
2023/01/25 09:09:32;;;;;;;146.75;90.13;;;;;;;;;;5048787;28;20028;-62
2023/01/25 09:11:58;;;;;;;116.15;69.60;;;;;;;;;;5048719;28;20048;-61
2023/01/25 09:14:24;;;;;;;106.78;61.90;;;;;;;;;;5048424;28;20075;-62
2023/01/25 09:16:50;;;;;;;108.10;57.70;;;;;;;;;;5048878;28;20028;-62
2023/01/25 09:19:16;;;;;;;105.78;56.55;;;;;;;;;;5048544;28;20025;-63
2023/01/25 09:21:42;;;;;;;94.28;57.70;;;;;;;;;;5048318;28;20082;-61
2023/01/25 09:24:08;;;;;;;96.25;52.17;;;;;;;;;;5048403;28;20064;-62
2023/01/25 09:26:35;;;;;;;99.28;56.80;;;;;;;;;;5048655;28;20436;-62
2023/01/25 09:29:03;;;;;;;91.60;49.97;;;;;;;;;;5048459;28;20029;-62
2023/01/25 09:31:29;;;;;;;94.93;57.85;;;;;;;;;;5054158;28;20067;-61
2023/01/25 09:33:56;;;;;;;104.72;57.53;;;;;;;;;;5057601;28;20091;-60
2023/01/25 09:36:22;;;;;;;116.35;60.03;;;;;;;;;;5057344;28;20154;-61
2023/01/25 09:38:49;;;;;;;96.60;55.80;;;;;;;;;;5057820;28;20040;-61
2023/01/25 09:41:21;;;;;;;83.22;48.55;;;;;;;;;;5057294;28;20545;-61
2023/01/25 09:44:05;;;;;;;119.80;80.72;;;;;;;;;;5057448;28;20501;-61
2023/01/25 09:46:39;;;;;;;78.53;47.75;;;;;;;;;;5038756;28;20064;-61
2023/01/25 09:49:20;;;;;;;95.38;52.85;;;;;;;;;;5045141;28;20081;-60
2023/01/25 09:51:59;;;;;;;104.65;55.70;;;;;;;;;;5045292;28;20098;-60
2023/01/25 09:54:27;;;;;;;133.55;74.18;;;;;;;;;;5044696;28;20041;-61
2023/01/25 09:56:54;;;;;;;103.57;57.40;;;;;;;;;;5045562;28;20036;-60
2023/01/25 09:59:25;;;;;;;84.55;42.10;;;;;;;;;;5045656;28;20017;-61
2023/01/25 10:02:02;;;;;;;91.47;50.20;;;;;;;;;;5047487;28;20107;-61
2023/01/25 10:04:30;;;;;;;147.05;91.28;;;;;;;;;;5048048;28;20048;-61
2023/01/25 10:06:59;;;;;;;92.50;51.97;;;;;;;;;;5049040;28;20083;-61
2023/01/25 10:09:47;;;;;;;241.98;162.63;;;;;;;;;;5049294;28;20035;-60
2023/01/25 10:12:15;;;;;;;75.25;45.67;;;102.80;2227.20;;;;;;5037318;28;20328;-59
2023/01/25 10:14:40;;;;;;;64.50;36.55;;;103.00;2227.20;;;;;;5048698;28;20029;-60
2023/01/25 10:17:18;;;;;;;77.07;46.00;;;102.50;2227.20;;;;;;5049291;28;20083;-59
2023/01/25 10:20:14;;;;;;;196.80;154.68;;;102.70;2227.20;;;;;;5048644;28;20025;-60
2023/01/25 10:22:57;;;;;;;103.00;60.17;;;102.70;2227.20;;;;;;5030940;28;20103;-59
2023/01/25 10:25:44;;;;;;;94.40;49.00;;;103.00;2227.20;;;;;;5048781;28;20093;-58
2023/01/25 10:28:27;;;;;;;116.95;63.72;;;102.80;2227.20;;;;;;5047487;28;20028;-61
2023/01/25 10:31:18;;;;;;;99.78;55.70;;;103.00;2227.20;;;;;;5049231;28;20522;-60
2023/01/25 10:33:46;;;;;;;114.97;62.28;;;103.00;2227.20;;;;;;4974263;28;20050;-59
2023/01/25 10:36:31;;;;;;;88.95;47.45;;;102.90;2227.20;;;;;;4974368;28;20034;-59
2023/01/25 10:38:59;;;;;;;104.53;59.70;;;103.00;2227.20;;;;;;4973784;28;20037;-60
2023/01/25 10:41:40;;;;;;;103.53;51.47;;;103.10;2227.20;;;;;;4974320;28;20077;-58
2023/01/25 10:44:27;;;;;;;114.05;67.53;;;103.10;2227.20;;;;;;4979886;28;20038;-59
2023/01/25 10:47:18;;;;;;;74.85;40.15;;;103.10;2227.20;;;;;;4980413;28;20050;-59
2023/01/25 10:49:47;;;;;;;66.63;34.00;;;103.20;2227.20;;;;;;4979284;28;20034;-58
2023/01/25 10:52:18;;;;;;;64.70;32.42;;;103.10;2227.20;;;;;;4980253;28;20066;-58
2023/01/25 10:54:50;;;;;;;72.68;43.97;;;103.20;2227.20;;;;;;4979452;28;20034;-59
2023/01/25 10:57:21;;;;;;;78.47;39.72;;;103.20;2227.20;;;;;;4980252;28;20034;-58
2023/01/25 10:59:51;;;;;;;72.53;40.38;;;103.10;2227.20;;;;;;4979745;28;20027;-60
2023/01/25 11:02:35;;;;;;;79.80;43.35;;;103.10;2227.20;;;;;;4979900;28;20026;-59
2023/01/25 11:05:32;;;;;;;63.42;40.60;;;103.20;2227.20;;;;;;4974928;28;20067;-59
2023/01/25 11:08:13;;;;;;;85.72;46.83;;;103.30;2227.20;;;;;;4973546;28;20527;-59
2023/01/25 11:10:45;;;;;;;84.90;45.83;;;128.00;2252.80;;;;;;5008648;28;20041;-60
2023/01/25 11:13:13;;;;;;;86.47;44.33;;;103.30;2227.20;;;;;;5046236;28;20514;-58
2023/01/25 11:16:17;;;;;;;82.65;45.90;;;103.20;2227.20;;;;;;5047203;28;20029;-61
2023/01/25 11:18:54;;;;;;;86.63;42.42;;;103.20;2227.20;;;;;;4987087;28;20524;-60
2023/01/25 11:21:24;;;;;;;93.30;48.17;;;103.30;2227.20;;;;;;4986333;28;20484;-59
2023/01/25 11:24:10;;;;;;;94.53;53.17;;;103.30;2227.20;;;;;;4986441;28;20118;-60
2023/01/25 11:26:38;;;;;;;91.03;51.35;;;128.00;2252.80;;;;;;4985774;28;20065;-59
2023/01/25 11:29:10;;;;;;;93.72;50.67;;;128.00;2252.80;;;;;;4986299;28;20042;-59
2023/01/25 11:31:36;;;;;;;84.73;46.67;;;128.10;2252.80;;;;;;4985061;28;20034;-58
2023/01/25 11:34:07;;;;;;;87.38;49.05;;;128.00;2252.80;;;;;;4986302;28;20038;-59
2023/01/25 11:36:47;;;;;;;95.18;55.92;;;128.00;2252.80;;;;;;4984890;28;20483;-58
2023/01/25 11:39:23;;;;;;;96.60;52.75;;;103.30;2227.20;;;;;;4985909;28;20093;-59
2023/01/25 11:42:15;;;;;;;96.55;58.35;;;103.30;2227.20;;;;;;4985583;28;20030;-59
2023/01/25 11:45:08;;;;;;;106.80;57.22;;;128.00;2252.80;;;;;;4991983;28;20049;-60
2023/01/25 11:47:37;;;;;;;90.80;47.92;;;128.10;2252.80;;;;;;5006138;28;20049;-59
2023/01/25 11:50:20;;;;;;;91.30;45.58;;;128.10;2252.80;;;;;;5013656;28;20476;-60
2023/01/25 11:52:58;;;;;;;87.30;47.47;;;128.10;2252.80;;;;;;5015022;28;20041;-59
2023/01/25 11:55:45;;;;;;;101.82;58.50;;;128.20;2252.80;;;;;;5037643;28;20504;-59
2023/01/25 11:58:40;;;;;;;97.65;56.33;;;128.30;2252.80;;;;;;5068924;28;20436;-61
2023/01/25 12:01:26;;;;;;;91.80;55.58;;;128.20;2252.80;;;;;;5068181;28;20664;-60
2023/01/25 12:03:54;;;;;;;92.38;51.88;;;128.30;2252.80;;;;;;5007031;28;20125;-59
2023/01/25 12:06:49;;;;;;;86.68;48.30;;;128.20;2252.80;;;;;;5006789;28;20461;-60
2023/01/25 12:09:43;;;;;;;80.82;46.85;;;128.40;2252.80;;;;;;4941818;29;20047;-60
2023/01/25 12:12:21;;;;;;;71.15;39.67;;;128.10;2252.80;;;;;;4940697;29;20044;-60
2023/01/25 12:15:12;;;;;;;79.95;46.25;;;128.10;2252.80;;;;;;4948910;29;20153;-60
2023/01/25 12:17:43;;;;;;;85.68;50.35;;;103.30;2227.20;;;;;;4948786;29;20568;-59
2023/01/25 12:20:37;;;;;;;81.30;46.42;;;103.30;2227.20;;;;;;4949229;29;20587;-59
2023/01/25 12:23:20;;;;;;;63.03;35.63;;;103.30;2227.20;;;;;;4949260;29;20039;-60
2023/01/25 12:26:03;;;;;;;85.55;44.33;;;103.10;2227.20;;;;;;4948082;29;20031;-60
2023/01/25 12:28:46;;;;;;;88.38;52.65;;;103.20;2227.20;;;;;;4960564;28;20043;-60
2023/01/25 12:31:20;;;;;;;77.72;45.22;;;103.30;2227.20;;;;;;4968363;28;20392;-60
2023/01/25 12:33:49;;;;;;;66.25;35.05;;;128.00;2252.80;;;;;;4968003;28;20432;-60
2023/01/25 12:36:30;;;;;;;67.85;37.30;;;128.10;2252.80;;;;;;4969239;28;20059;-60
2023/01/25 12:38:56;;;;;;;68.05;39.67;;;128.20;2252.80;;;;;;4970443;28;20437;-61
2023/01/25 12:41:29;;;;;;;80.03;42.70;;;128.20;2252.80;;;;;;4983525;28;20138;-61
2023/01/25 12:44:21;;;;;;;103.90;64.25;;;128.30;2252.80;;;;;;4989660;28;20031;-60
2023/01/25 12:47:21;;;;;;;85.28;47.83;;;103.20;2227.20;;;;;;4989520;28;20448;-59
2023/01/25 12:49:52;;;;;;;79.30;51.78;;;128.00;2252.80;;;;;;4989759;28;20041;-60
2023/01/25 12:52:22;;;;;;;83.25;49.97;;;103.30;2227.20;;;;;;4989547;28;20520;-60